sensor_id;sensor_type;location;lat;lon;timestamp;P1;durP1;ratioP1;P2;durP2;ratioP2
29302;SDS011;60019;45.556;12.004;2024-02-21T00:05:17;46.58;;;37.47;;
29302;SDS011;60019;45.556;12.004;2024-02-21T00:11:19;47.15;;;36.38;;
29302;SDS011;60019;45.556;12.004;2024-02-21T00:17:21;45.17;;;36.90;;
29302;SDS011;60019;45.556;12.004;2024-02-21T00:23:23;50.50;;;38.65;;
29302;SDS011;60019;45.556;12.004;2024-02-21T00:29:24;48.40;;;39.37;;
29302;SDS011;60019;45.556;12.004;2024-02-21T00:35:26;47.17;;;37.88;;
29302;SDS011;60019;45.556;12.004;2024-02-21T00:41:28;48.90;;;39.00;;
29302;SDS011;60019;45.556;12.004;2024-02-21T00:47:30;49.90;;;37.72;;
29302;SDS011;60019;45.556;12.004;2024-02-21T00:53:32;49.15;;;38.65;;
29302;SDS011;60019;45.556;12.004;2024-02-21T00:59:34;49.35;;;37.80;;
29302;SDS011;60019;45.556;12.004;2024-02-21T01:05:36;48.87;;;38.60;;
29302;SDS011;60019;45.556;12.004;2024-02-21T01:11:37;46.80;;;37.00;;
29302;SDS011;60019;45.556;12.004;2024-02-21T01:17:39;47.30;;;37.03;;
29302;SDS011;60019;45.556;12.004;2024-02-21T01:23:41;45.50;;;35.50;;
29302;SDS011;60019;45.556;12.004;2024-02-21T01:29:43;41.95;;;32.90;;
29302;SDS011;60019;45.556;12.004;2024-02-21T01:35:47;40.00;;;31.50;;
29302;SDS011;60019;45.556;12.004;2024-02-21T01:41:50;40.00;;;30.73;;
29302;SDS011;60019;45.556;12.004;2024-02-21T01:47:52;38.57;;;30.40;;
29302;SDS011;60019;45.556;12.004;2024-02-21T01:53:54;37.55;;;30.17;;
29302;SDS011;60019;45.556;12.004;2024-02-21T01:59:57;35.00;;;27.77;;
29302;SDS011;60019;45.556;12.004;2024-02-21T02:05:58;35.43;;;27.67;;
29302;SDS011;60019;45.556;12.004;2024-02-21T02:12:01;35.63;;;27.30;;
29302;SDS011;60019;45.556;12.004;2024-02-21T02:18:03;33.93;;;26.33;;
29302;SDS011;60019;45.556;12.004;2024-02-21T02:24:05;32.55;;;26.63;;
29302;SDS011;60019;45.556;12.004;2024-02-21T02:30:07;31.45;;;25.52;;
29302;SDS011;60019;45.556;12.004;2024-02-21T02:36:09;31.43;;;24.97;;
29302;SDS011;60019;45.556;12.004;2024-02-21T02:42:11;32.38;;;24.52;;
29302;SDS011;60019;45.556;12.004;2024-02-21T02:48:13;30.33;;;24.52;;
29302;SDS011;60019;45.556;12.004;2024-02-21T02:54:14;33.47;;;27.83;;
29302;SDS011;60019;45.556;12.004;2024-02-21T03:00:16;29.27;;;24.02;;
29302;SDS011;60019;45.556;12.004;2024-02-21T03:06:18;26.43;;;22.00;;
29302;SDS011;60019;45.556;12.004;2024-02-21T03:12:20;23.50;;;19.57;;
29302;SDS011;60019;45.556;12.004;2024-02-21T03:18:28;23.67;;;19.17;;
29302;SDS011;60019;45.556;12.004;2024-02-21T03:24:30;24.75;;;19.20;;
29302;SDS011;60019;45.556;12.004;2024-02-21T03:30:32;23.33;;;18.43;;
29302;SDS011;60019;45.556;12.004;2024-02-21T03:36:34;23.23;;;18.88;;
29302;SDS011;60019;45.556;12.004;2024-02-21T03:42:37;20.73;;;17.52;;
29302;SDS011;60019;45.556;12.004;2024-02-21T03:48:39;23.95;;;18.33;;
29302;SDS011;60019;45.556;12.004;2024-02-21T03:54:40;22.83;;;18.10;;
29302;SDS011;60019;45.556;12.004;2024-02-21T04:00:42;23.70;;;18.67;;
29302;SDS011;60019;45.556;12.004;2024-02-21T04:06:50;23.57;;;18.80;;
29302;SDS011;60019;45.556;12.004;2024-02-21T04:12:52;21.83;;;18.25;;
29302;SDS011;60019;45.556;12.004;2024-02-21T04:18:54;23.70;;;18.15;;
29302;SDS011;60019;45.556;12.004;2024-02-21T04:24:56;21.67;;;18.65;;
29302;SDS011;60019;45.556;12.004;2024-02-21T04:30:58;20.98;;;17.88;;
29302;SDS011;60019;45.556;12.004;2024-02-21T04:36:59;21.85;;;17.58;;
29302;SDS011;60019;45.556;12.004;2024-02-21T04:43:01;22.83;;;19.00;;
29302;SDS011;60019;45.556;12.004;2024-02-21T04:49:03;24.63;;;18.50;;
29302;SDS011;60019;45.556;12.004;2024-02-21T04:55:05;23.27;;;18.90;;
29302;SDS011;60019;45.556;12.004;2024-02-21T05:01:08;22.63;;;18.70;;
29302;SDS011;60019;45.556;12.004;2024-02-21T05:07:09;21.50;;;18.25;;
29302;SDS011;60019;45.556;12.004;2024-02-21T05:13:12;23.67;;;18.88;;
29302;SDS011;60019;45.556;12.004;2024-02-21T05:19:14;23.75;;;18.92;;
29302;SDS011;60019;45.556;12.004;2024-02-21T05:25:16;22.08;;;19.13;;
29302;SDS011;60019;45.556;12.004;2024-02-21T05:31:18;21.67;;;18.20;;
29302;SDS011;60019;45.556;12.004;2024-02-21T05:37:20;23.97;;;20.03;;
29302;SDS011;60019;45.556;12.004;2024-02-21T05:43:21;23.60;;;19.97;;
29302;SDS011;60019;45.556;12.004;2024-02-21T05:49:23;25.40;;;19.50;;
29302;SDS011;60019;45.556;12.004;2024-02-21T05:55:25;24.15;;;19.58;;
29302;SDS011;60019;45.556;12.004;2024-02-21T06:01:28;24.00;;;18.83;;
29302;SDS011;60019;45.556;12.004;2024-02-21T06:07:30;25.10;;;18.40;;
29302;SDS011;60019;45.556;12.004;2024-02-21T06:13:32;97.90;;;62.22;;
29302;SDS011;60019;45.556;12.004;2024-02-21T06:19:34;82.15;;;54.78;;
29302;SDS011;60019;45.556;12.004;2024-02-21T06:25:35;54.47;;;37.38;;
29302;SDS011;60019;45.556;12.004;2024-02-21T06:31:37;44.90;;;33.17;;
29302;SDS011;60019;45.556;12.004;2024-02-21T06:37:39;38.53;;;28.00;;
29302;SDS011;60019;45.556;12.004;2024-02-21T06:43:41;37.28;;;25.88;;
29302;SDS011;60019;45.556;12.004;2024-02-21T06:49:42;30.02;;;24.42;;
29302;SDS011;60019;45.556;12.004;2024-02-21T06:55:44;29.83;;;23.38;;
29302;SDS011;60019;45.556;12.004;2024-02-21T07:01:49;31.20;;;23.73;;
29302;SDS011;60019;45.556;12.004;2024-02-21T07:07:51;31.70;;;24.83;;
29302;SDS011;60019;45.556;12.004;2024-02-21T07:13:53;30.48;;;23.92;;
29302;SDS011;60019;45.556;12.004;2024-02-21T07:19:55;27.52;;;22.55;;
29302;SDS011;60019;45.556;12.004;2024-02-21T07:25:57;31.70;;;23.00;;
29302;SDS011;60019;45.556;12.004;2024-02-21T07:31:59;28.37;;;21.47;;
29302;SDS011;60019;45.556;12.004;2024-02-21T07:38:01;26.73;;;20.97;;
29302;SDS011;60019;45.556;12.004;2024-02-21T07:44:03;25.97;;;20.03;;
29302;SDS011;60019;45.556;12.004;2024-02-21T07:50:05;27.67;;;19.07;;
29302;SDS011;60019;45.556;12.004;2024-02-21T07:56:08;24.13;;;18.10;;
29302;SDS011;60019;45.556;12.004;2024-02-21T08:02:10;23.50;;;18.13;;
29302;SDS011;60019;45.556;12.004;2024-02-21T08:08:12;21.87;;;16.70;;
29302;SDS011;60019;45.556;12.004;2024-02-21T08:14:19;21.50;;;16.63;;
29302;SDS011;60019;45.556;12.004;2024-02-21T08:20:20;19.40;;;15.77;;
29302;SDS011;60019;45.556;12.004;2024-02-21T08:26:22;19.00;;;16.10;;
29302;SDS011;60019;45.556;12.004;2024-02-21T08:32:24;17.05;;;14.80;;
29302;SDS011;60019;45.556;12.004;2024-02-21T08:38:26;20.10;;;14.50;;
29302;SDS011;60019;45.556;12.004;2024-02-21T08:44:28;19.55;;;15.13;;
29302;SDS011;60019;45.556;12.004;2024-02-21T08:50:30;18.20;;;14.40;;
29302;SDS011;60019;45.556;12.004;2024-02-21T08:56:31;16.63;;;13.13;;
29302;SDS011;60019;45.556;12.004;2024-02-21T09:02:33;15.07;;;12.53;;
29302;SDS011;60019;45.556;12.004;2024-02-21T09:08:35;15.07;;;12.43;;
29302;SDS011;60019;45.556;12.004;2024-02-21T09:14:37;15.87;;;12.83;;
29302;SDS011;60019;45.556;12.004;2024-02-21T09:20:39;14.70;;;11.57;;
29302;SDS011;60019;45.556;12.004;2024-02-21T09:26:41;15.98;;;12.15;;
29302;SDS011;60019;45.556;12.004;2024-02-21T09:32:43;14.48;;;11.38;;
29302;SDS011;60019;45.556;12.004;2024-02-21T09:38:44;14.68;;;10.82;;
29302;SDS011;60019;45.556;12.004;2024-02-21T09:44:46;11.27;;;9.50;;
29302;SDS011;60019;45.556;12.004;2024-02-21T09:50:49;11.02;;;9.25;;
29302;SDS011;60019;45.556;12.004;2024-02-21T09:56:52;10.87;;;9.07;;
29302;SDS011;60019;45.556;12.004;2024-02-21T10:02:53;11.17;;;8.73;;
29302;SDS011;60019;45.556;12.004;2024-02-21T10:08:56;9.43;;;7.90;;
29302;SDS011;60019;45.556;12.004;2024-02-21T10:15:04;10.13;;;8.15;;
29302;SDS011;60019;45.556;12.004;2024-02-21T10:21:07;9.85;;;7.43;;
29302;SDS011;60019;45.556;12.004;2024-02-21T10:27:09;9.30;;;7.40;;
29302;SDS011;60019;45.556;12.004;2024-02-21T10:33:12;8.07;;;6.53;;
29302;SDS011;60019;45.556;12.004;2024-02-21T10:39:17;9.60;;;7.60;;
29302;SDS011;60019;45.556;12.004;2024-02-21T10:45:18;7.70;;;6.33;;
29302;SDS011;60019;45.556;12.004;2024-02-21T10:51:20;7.23;;;5.67;;
29302;SDS011;60019;45.556;12.004;2024-02-21T10:57:25;7.03;;;6.32;;
29302;SDS011;60019;45.556;12.004;2024-02-21T11:03:30;6.90;;;5.53;;
29302;SDS011;60019;45.556;12.004;2024-02-21T11:09:33;6.60;;;5.17;;
29302;SDS011;60019;45.556;12.004;2024-02-21T11:15:35;6.47;;;5.35;;
29302;SDS011;60019;45.556;12.004;2024-02-21T11:21:37;5.80;;;4.88;;
29302;SDS011;60019;45.556;12.004;2024-02-21T11:27:39;6.07;;;4.90;;
29302;SDS011;60019;45.556;12.004;2024-02-21T11:33:47;6.40;;;4.67;;
29302;SDS011;60019;45.556;12.004;2024-02-21T11:39:48;5.97;;;4.70;;
29302;SDS011;60019;45.556;12.004;2024-02-21T11:45:50;5.45;;;4.63;;
29302;SDS011;60019;45.556;12.004;2024-02-21T11:52:01;5.30;;;4.80;;
29302;SDS011;60019;45.556;12.004;2024-02-21T11:58:05;5.90;;;4.50;;
29302;SDS011;60019;45.556;12.004;2024-02-21T12:04:06;5.53;;;4.33;;
29302;SDS011;60019;45.556;12.004;2024-02-21T12:10:09;7.13;;;5.22;;
29302;SDS011;60019;45.556;12.004;2024-02-21T12:16:11;6.47;;;4.97;;
29302;SDS011;60019;45.556;12.004;2024-02-21T12:22:17;58.20;;;31.60;;
29302;SDS011;60019;45.556;12.004;2024-02-21T12:28:20;26.17;;;15.65;;
29302;SDS011;60019;45.556;12.004;2024-02-21T12:34:25;13.98;;;11.13;;
29302;SDS011;60019;45.556;12.004;2024-02-21T12:40:28;12.82;;;9.60;;
29302;SDS011;60019;45.556;12.004;2024-02-21T12:46:33;15.67;;;11.13;;
29302;SDS011;60019;45.556;12.004;2024-02-21T12:52:36;15.23;;;12.15;;
29302;SDS011;60019;45.556;12.004;2024-02-21T12:58:38;18.40;;;14.50;;
29302;SDS011;60019;45.556;12.004;2024-02-21T13:04:40;17.67;;;14.45;;
29302;SDS011;60019;45.556;12.004;2024-02-21T13:10:42;22.85;;;18.65;;
29302;SDS011;60019;45.556;12.004;2024-02-21T13:16:44;22.30;;;17.60;;
29302;SDS011;60019;45.556;12.004;2024-02-21T13:22:45;22.20;;;18.07;;
29302;SDS011;60019;45.556;12.004;2024-02-21T13:28:47;143.90;;;76.93;;
29302;SDS011;60019;45.556;12.004;2024-02-21T13:34:49;25.60;;;19.77;;
29302;SDS011;60019;45.556;12.004;2024-02-21T13:40:53;28.90;;;22.50;;
29302;SDS011;60019;45.556;12.004;2024-02-21T13:46:54;24.58;;;19.75;;
29302;SDS011;60019;45.556;12.004;2024-02-21T13:52:56;25.17;;;18.80;;
29302;SDS011;60019;45.556;12.004;2024-02-21T13:58:58;19.83;;;16.23;;
29302;SDS011;60019;45.556;12.004;2024-02-21T14:05:02;23.43;;;17.47;;
29302;SDS011;60019;45.556;12.004;2024-02-21T14:11:07;20.97;;;16.73;;
29302;SDS011;60019;45.556;12.004;2024-02-21T14:17:08;21.67;;;15.20;;
29302;SDS011;60019;45.556;12.004;2024-02-21T14:23:10;17.43;;;14.17;;
29302;SDS011;60019;45.556;12.004;2024-02-21T14:29:13;14.32;;;9.32;;
29302;SDS011;60019;45.556;12.004;2024-02-21T14:35:15;11.13;;;7.53;;
29302;SDS011;60019;45.556;12.004;2024-02-21T14:41:17;12.27;;;8.25;;
29302;SDS011;60019;45.556;12.004;2024-02-21T14:47:19;10.85;;;6.55;;
29302;SDS011;60019;45.556;12.004;2024-02-21T14:53:22;9.38;;;6.03;;
29302;SDS011;60019;45.556;12.004;2024-02-21T14:59:24;9.70;;;6.93;;
29302;SDS011;60019;45.556;12.004;2024-02-21T15:05:26;8.70;;;5.95;;
29302;SDS011;60019;45.556;12.004;2024-02-21T15:11:29;7.20;;;4.90;;
29302;SDS011;60019;45.556;12.004;2024-02-21T15:17:31;6.75;;;5.45;;
29302;SDS011;60019;45.556;12.004;2024-02-21T15:23:32;7.10;;;5.15;;
29302;SDS011;60019;45.556;12.004;2024-02-21T15:29:34;9.13;;;5.88;;
29302;SDS011;60019;45.556;12.004;2024-02-21T15:35:39;6.60;;;4.60;;
29302;SDS011;60019;45.556;12.004;2024-02-21T15:41:42;6.82;;;4.88;;
29302;SDS011;60019;45.556;12.004;2024-02-21T15:47:44;6.75;;;4.45;;
29302;SDS011;60019;45.556;12.004;2024-02-21T15:53:45;6.07;;;4.45;;
29302;SDS011;60019;45.556;12.004;2024-02-21T15:59:47;6.65;;;4.82;;
29302;SDS011;60019;45.556;12.004;2024-02-21T16:05:50;8.48;;;4.88;;
29302;SDS011;60019;45.556;12.004;2024-02-21T16:11:52;7.28;;;5.13;;
29302;SDS011;60019;45.556;12.004;2024-02-21T16:17:55;7.80;;;4.57;;
29302;SDS011;60019;45.556;12.004;2024-02-21T16:23:57;6.03;;;4.28;;
29302;SDS011;60019;45.556;12.004;2024-02-21T16:29:59;7.03;;;4.22;;
29302;SDS011;60019;45.556;12.004;2024-02-21T16:36:01;5.70;;;4.40;;
29302;SDS011;60019;45.556;12.004;2024-02-21T16:42:03;9.20;;;4.53;;
29302;SDS011;60019;45.556;12.004;2024-02-21T16:48:05;7.45;;;4.10;;
29302;SDS011;60019;45.556;12.004;2024-02-21T16:54:06;6.32;;;4.43;;
29302;SDS011;60019;45.556;12.004;2024-02-21T17:00:11;7.35;;;4.50;;
29302;SDS011;60019;45.556;12.004;2024-02-21T17:06:13;5.28;;;4.18;;
29302;SDS011;60019;45.556;12.004;2024-02-21T17:12:15;6.88;;;4.18;;
29302;SDS011;60019;45.556;12.004;2024-02-21T17:18:17;6.20;;;4.30;;
29302;SDS011;60019;45.556;12.004;2024-02-21T17:24:19;5.75;;;4.15;;
29302;SDS011;60019;45.556;12.004;2024-02-21T17:30:21;5.13;;;4.30;;
29302;SDS011;60019;45.556;12.004;2024-02-21T17:36:23;6.50;;;4.70;;
29302;SDS011;60019;45.556;12.004;2024-02-21T17:42:25;6.25;;;4.55;;
29302;SDS011;60019;45.556;12.004;2024-02-21T17:48:27;6.05;;;5.32;;
29302;SDS011;60019;45.556;12.004;2024-02-21T17:54:28;5.35;;;4.65;;
29302;SDS011;60019;45.556;12.004;2024-02-21T18:00:30;7.88;;;5.45;;
29302;SDS011;60019;45.556;12.004;2024-02-21T18:06:39;10.63;;;5.30;;
29302;SDS011;60019;45.556;12.004;2024-02-21T18:12:41;12.00;;;5.47;;
29302;SDS011;60019;45.556;12.004;2024-02-21T18:18:43;11.43;;;5.53;;
29302;SDS011;60019;45.556;12.004;2024-02-21T18:24:45;7.53;;;5.43;;
29302;SDS011;60019;45.556;12.004;2024-02-21T18:30:46;8.50;;;5.82;;
29302;SDS011;60019;45.556;12.004;2024-02-21T18:36:49;13.45;;;5.60;;
29302;SDS011;60019;45.556;12.004;2024-02-21T18:42:52;12.70;;;6.28;;
29302;SDS011;60019;45.556;12.004;2024-02-21T18:48:55;12.07;;;7.85;;
29302;SDS011;60019;45.556;12.004;2024-02-21T19:00:59;45.88;;;22.88;;
29302;SDS011;60019;45.556;12.004;2024-02-21T19:07:00;39.25;;;18.05;;
29302;SDS011;60019;45.556;12.004;2024-02-21T19:13:02;18.90;;;11.63;;
29302;SDS011;60019;45.556;12.004;2024-02-21T19:19:04;17.70;;;10.80;;
29302;SDS011;60019;45.556;12.004;2024-02-21T19:25:07;18.02;;;10.50;;
29302;SDS011;60019;45.556;12.004;2024-02-21T19:31:13;13.77;;;9.82;;
29302;SDS011;60019;45.556;12.004;2024-02-21T19:37:15;18.50;;;11.35;;
29302;SDS011;60019;45.556;12.004;2024-02-21T19:43:17;13.60;;;10.27;;
29302;SDS011;60019;45.556;12.004;2024-02-21T19:49:18;17.67;;;10.52;;
29302;SDS011;60019;45.556;12.004;2024-02-21T19:55:20;13.70;;;10.80;;
29302;SDS011;60019;45.556;12.004;2024-02-21T20:01:22;12.73;;;9.13;;
29302;SDS011;60019;45.556;12.004;2024-02-21T20:07:24;16.58;;;9.82;;
29302;SDS011;60019;45.556;12.004;2024-02-21T20:13:26;14.13;;;9.68;;
29302;SDS011;60019;45.556;12.004;2024-02-21T20:19:27;14.35;;;9.63;;
29302;SDS011;60019;45.556;12.004;2024-02-21T20:25:29;13.85;;;8.73;;
29302;SDS011;60019;45.556;12.004;2024-02-21T20:31:31;14.90;;;9.05;;
29302;SDS011;60019;45.556;12.004;2024-02-21T20:37:34;12.77;;;9.90;;
29302;SDS011;60019;45.556;12.004;2024-02-21T20:43:36;15.02;;;9.60;;
29302;SDS011;60019;45.556;12.004;2024-02-21T20:49:37;17.70;;;10.75;;
29302;SDS011;60019;45.556;12.004;2024-02-21T20:55:39;14.68;;;11.18;;
29302;SDS011;60019;45.556;12.004;2024-02-21T21:01:41;86.28;;;44.15;;
29302;SDS011;60019;45.556;12.004;2024-02-21T21:07:43;161.35;;;68.93;;
29302;SDS011;60019;45.556;12.004;2024-02-21T21:13:45;115.38;;;49.38;;
29302;SDS011;60019;45.556;12.004;2024-02-21T21:19:47;67.63;;;32.20;;
29302;SDS011;60019;45.556;12.004;2024-02-21T21:25:51;84.15;;;45.80;;
29302;SDS011;60019;45.556;12.004;2024-02-21T21:31:53;177.10;;;88.60;;
29302;SDS011;60019;45.556;12.004;2024-02-21T21:37:55;134.35;;;68.78;;
29302;SDS011;60019;45.556;12.004;2024-02-21T21:43:57;94.65;;;52.20;;
29302;SDS011;60019;45.556;12.004;2024-02-21T21:49:59;66.95;;;38.35;;
29302;SDS011;60019;45.556;12.004;2024-02-21T21:56:01;54.67;;;32.22;;
29302;SDS011;60019;45.556;12.004;2024-02-21T22:02:05;46.17;;;27.67;;
29302;SDS011;60019;45.556;12.004;2024-02-21T22:08:06;40.03;;;24.50;;
29302;SDS011;60019;45.556;12.004;2024-02-21T22:14:08;40.00;;;21.85;;
29302;SDS011;60019;45.556;12.004;2024-02-21T22:20:10;31.27;;;20.20;;
29302;SDS011;60019;45.556;12.004;2024-02-21T22:26:12;28.58;;;18.75;;
29302;SDS011;60019;45.556;12.004;2024-02-21T22:32:16;30.63;;;19.42;;
29302;SDS011;60019;45.556;12.004;2024-02-21T22:38:18;28.20;;;18.13;;
29302;SDS011;60019;45.556;12.004;2024-02-21T22:44:19;24.92;;;17.30;;
29302;SDS011;60019;45.556;12.004;2024-02-21T22:50:21;26.20;;;17.15;;
29302;SDS011;60019;45.556;12.004;2024-02-21T22:56:23;26.33;;;16.70;;
29302;SDS011;60019;45.556;12.004;2024-02-21T23:02:25;23.48;;;16.98;;
29302;SDS011;60019;45.556;12.004;2024-02-21T23:08:26;26.90;;;18.63;;
29302;SDS011;60019;45.556;12.004;2024-02-21T23:14:28;29.17;;;19.58;;
29302;SDS011;60019;45.556;12.004;2024-02-21T23:20:30;27.58;;;19.40;;
29302;SDS011;60019;45.556;12.004;2024-02-21T23:26:32;30.30;;;20.52;;
29302;SDS011;60019;45.556;12.004;2024-02-21T23:32:34;28.70;;;20.23;;
29302;SDS011;60019;45.556;12.004;2024-02-21T23:38:36;30.73;;;20.88;;
29302;SDS011;60019;45.556;12.004;2024-02-21T23:44:38;29.73;;;18.63;;
29302;SDS011;60019;45.556;12.004;2024-02-21T23:50:39;29.88;;;18.48;;
29302;SDS011;60019;45.556;12.004;2024-02-21T23:56:42;25.58;;;17.65;;
